Terminal Aerodrome Forecast
Issued by NWS Binghamton, NY

Home | Current Version | Previous Version | Text Only | Print | Product List | Glossary On
Versions: 1 2 3 4 5 6 7 8 9 10 11 12 13 14 15 16 17 18 19 20 21
480
FTUS41 KBGM 230810 AAB
TAFSYR
TAF AMD
KSYR 230810Z 2308/2406 VRB03KT P6SM SKC
      TEMPO 2308/2311 4SM BR SCT006
     FM231300 31007KT P6SM SCT100
     FM240200 VRB03KT P6SM SKC=

USA.gov is the U.S. government's official web portal to all federal, state and local government web resources and services.